sensor_id;sensor_type;location;lat;lon;timestamp;P1;durP1;ratioP1;P2;durP2;ratioP2
20456;SDS011;10387;51.102;6.848;2023-07-22T00:02:25;10.60;;;7.00;;
20456;SDS011;10387;51.102;6.848;2023-07-22T00:04:51;9.57;;;7.47;;
20456;SDS011;10387;51.102;6.848;2023-07-22T00:07:17;10.27;;;6.90;;
20456;SDS011;10387;51.102;6.848;2023-07-22T00:09:43;11.03;;;7.10;;
20456;SDS011;10387;51.102;6.848;2023-07-22T00:12:10;9.57;;;7.00;;
20456;SDS011;10387;51.102;6.848;2023-07-22T00:14:38;11.03;;;7.43;;
20456;SDS011;10387;51.102;6.848;2023-07-22T00:17:05;10.20;;;7.33;;
20456;SDS011;10387;51.102;6.848;2023-07-22T00:19:31;11.03;;;7.90;;
20456;SDS011;10387;51.102;6.848;2023-07-22T00:21:57;10.27;;;7.77;;
20456;SDS011;10387;51.102;6.848;2023-07-22T00:24:23;10.93;;;7.60;;
20456;SDS011;10387;51.102;6.848;2023-07-22T00:26:49;9.67;;;8.10;;
20456;SDS011;10387;51.102;6.848;2023-07-22T00:29:15;12.13;;;9.03;;
20456;SDS011;10387;51.102;6.848;2023-07-22T00:31:41;10.27;;;8.10;;
20456;SDS011;10387;51.102;6.848;2023-07-22T00:34:07;11.07;;;8.43;;
20456;SDS011;10387;51.102;6.848;2023-07-22T00:36:34;11.93;;;8.10;;
20456;SDS011;10387;51.102;6.848;2023-07-22T00:39:00;10.67;;;8.20;;
20456;SDS011;10387;51.102;6.848;2023-07-22T00:41:26;11.67;;;8.40;;
20456;SDS011;10387;51.102;6.848;2023-07-22T00:43:54;8.50;;;7.60;;
20456;SDS011;10387;51.102;6.848;2023-07-22T00:46:20;11.07;;;7.43;;
20456;SDS011;10387;51.102;6.848;2023-07-22T00:48:46;10.10;;;7.73;;
20456;SDS011;10387;51.102;6.848;2023-07-22T00:51:13;9.73;;;7.83;;
20456;SDS011;10387;51.102;6.848;2023-07-22T00:53:39;10.20;;;7.40;;
20456;SDS011;10387;51.102;6.848;2023-07-22T00:56:05;11.73;;;7.80;;
20456;SDS011;10387;51.102;6.848;2023-07-22T00:58:34;10.73;;;7.50;;
20456;SDS011;10387;51.102;6.848;2023-07-22T01:01:00;10.90;;;8.07;;
20456;SDS011;10387;51.102;6.848;2023-07-22T01:03:26;11.80;;;8.20;;
20456;SDS011;10387;51.102;6.848;2023-07-22T01:05:53;10.67;;;7.77;;
20456;SDS011;10387;51.102;6.848;2023-07-22T01:08:20;9.90;;;7.57;;
20456;SDS011;10387;51.102;6.848;2023-07-22T01:10:46;10.83;;;7.93;;
20456;SDS011;10387;51.102;6.848;2023-07-22T01:13:13;11.40;;;7.57;;
20456;SDS011;10387;51.102;6.848;2023-07-22T01:15:39;10.23;;;7.70;;
20456;SDS011;10387;51.102;6.848;2023-07-22T01:18:06;12.40;;;8.27;;
20456;SDS011;10387;51.102;6.848;2023-07-22T01:20:32;12.50;;;8.40;;
20456;SDS011;10387;51.102;6.848;2023-07-22T01:22:58;10.23;;;7.67;;
20456;SDS011;10387;51.102;6.848;2023-07-22T01:25:25;11.47;;;8.47;;
20456;SDS011;10387;51.102;6.848;2023-07-22T01:27:51;12.50;;;8.67;;
20456;SDS011;10387;51.102;6.848;2023-07-22T01:30:17;12.10;;;7.50;;
20456;SDS011;10387;51.102;6.848;2023-07-22T01:32:44;10.70;;;7.70;;
20456;SDS011;10387;51.102;6.848;2023-07-22T01:35:10;12.20;;;8.33;;
20456;SDS011;10387;51.102;6.848;2023-07-22T01:37:36;11.70;;;8.13;;
20456;SDS011;10387;51.102;6.848;2023-07-22T01:40:03;9.90;;;7.73;;
20456;SDS011;10387;51.102;6.848;2023-07-22T01:42:39;11.23;;;8.00;;
20456;SDS011;10387;51.102;6.848;2023-07-22T01:45:05;11.83;;;8.27;;
20456;SDS011;10387;51.102;6.848;2023-07-22T01:47:33;10.10;;;7.80;;
20456;SDS011;10387;51.102;6.848;2023-07-22T01:50:00;9.53;;;7.40;;
20456;SDS011;10387;51.102;6.848;2023-07-22T01:52:26;11.93;;;8.40;;
20456;SDS011;10387;51.102;6.848;2023-07-22T01:54:53;9.13;;;7.70;;
20456;SDS011;10387;51.102;6.848;2023-07-22T01:57:19;11.20;;;7.57;;
20456;SDS011;10387;51.102;6.848;2023-07-22T01:59:45;10.33;;;7.50;;
20456;SDS011;10387;51.102;6.848;2023-07-22T02:02:11;10.27;;;6.93;;
20456;SDS011;10387;51.102;6.848;2023-07-22T02:04:37;9.27;;;7.63;;
20456;SDS011;10387;51.102;6.848;2023-07-22T02:07:03;9.03;;;6.93;;
20456;SDS011;10387;51.102;6.848;2023-07-22T02:09:31;8.80;;;6.70;;
20456;SDS011;10387;51.102;6.848;2023-07-22T02:11:58;9.70;;;7.20;;
20456;SDS011;10387;51.102;6.848;2023-07-22T02:14:24;8.47;;;7.17;;
20456;SDS011;10387;51.102;6.848;2023-07-22T02:16:50;8.43;;;6.67;;
20456;SDS011;10387;51.102;6.848;2023-07-22T02:19:16;8.87;;;7.33;;
20456;SDS011;10387;51.102;6.848;2023-07-22T02:21:42;8.57;;;6.50;;
20456;SDS011;10387;51.102;6.848;2023-07-22T02:24:09;7.73;;;6.50;;
20456;SDS011;10387;51.102;6.848;2023-07-22T02:26:35;9.53;;;7.13;;
20456;SDS011;10387;51.102;6.848;2023-07-22T02:29:02;9.83;;;7.37;;
20456;SDS011;10387;51.102;6.848;2023-07-22T02:31:28;9.40;;;7.70;;
20456;SDS011;10387;51.102;6.848;2023-07-22T02:33:54;9.57;;;6.63;;
20456;SDS011;10387;51.102;6.848;2023-07-22T02:36:20;7.87;;;6.77;;
20456;SDS011;10387;51.102;6.848;2023-07-22T02:38:49;7.87;;;6.23;;
20456;SDS011;10387;51.102;6.848;2023-07-22T02:41:15;9.47;;;6.73;;
20456;SDS011;10387;51.102;6.848;2023-07-22T02:43:41;11.47;;;6.80;;
20456;SDS011;10387;51.102;6.848;2023-07-22T02:46:08;9.07;;;7.00;;
20456;SDS011;10387;51.102;6.848;2023-07-22T02:48:35;7.67;;;6.57;;
20456;SDS011;10387;51.102;6.848;2023-07-22T02:51:04;9.43;;;7.23;;
20456;SDS011;10387;51.102;6.848;2023-07-22T02:53:31;8.80;;;7.23;;
20456;SDS011;10387;51.102;6.848;2023-07-22T02:55:58;8.87;;;6.73;;
20456;SDS011;10387;51.102;6.848;2023-07-22T02:58:24;8.37;;;6.50;;
20456;SDS011;10387;51.102;6.848;2023-07-22T03:00:50;8.13;;;6.70;;
20456;SDS011;10387;51.102;6.848;2023-07-22T03:03:16;8.40;;;6.67;;
20456;SDS011;10387;51.102;6.848;2023-07-22T03:05:44;8.23;;;6.80;;
20456;SDS011;10387;51.102;6.848;2023-07-22T03:08:10;8.93;;;6.50;;
20456;SDS011;10387;51.102;6.848;2023-07-22T03:10:36;8.47;;;6.67;;
20456;SDS011;10387;51.102;6.848;2023-07-22T03:13:02;7.73;;;6.23;;
20456;SDS011;10387;51.102;6.848;2023-07-22T03:15:28;9.40;;;6.70;;
20456;SDS011;10387;51.102;6.848;2023-07-22T03:17:55;10.57;;;6.77;;
20456;SDS011;10387;51.102;6.848;2023-07-22T03:20:21;8.03;;;6.37;;
20456;SDS011;10387;51.102;6.848;2023-07-22T03:22:49;9.03;;;6.70;;
20456;SDS011;10387;51.102;6.848;2023-07-22T03:25:16;8.77;;;6.67;;
20456;SDS011;10387;51.102;6.848;2023-07-22T03:27:42;7.83;;;6.97;;
20456;SDS011;10387;51.102;6.848;2023-07-22T03:30:11;7.90;;;6.53;;
20456;SDS011;10387;51.102;6.848;2023-07-22T03:32:40;8.80;;;6.90;;
20456;SDS011;10387;51.102;6.848;2023-07-22T03:35:08;9.23;;;7.20;;
20456;SDS011;10387;51.102;6.848;2023-07-22T03:37:36;8.93;;;7.10;;
20456;SDS011;10387;51.102;6.848;2023-07-22T03:40:02;11.40;;;7.37;;
20456;SDS011;10387;51.102;6.848;2023-07-22T03:42:32;8.30;;;7.27;;
20456;SDS011;10387;51.102;6.848;2023-07-22T03:44:58;8.33;;;7.23;;
20456;SDS011;10387;51.102;6.848;2023-07-22T03:47:24;8.23;;;7.07;;
20456;SDS011;10387;51.102;6.848;2023-07-22T03:49:50;9.13;;;7.33;;
20456;SDS011;10387;51.102;6.848;2023-07-22T03:52:16;11.27;;;7.80;;
20456;SDS011;10387;51.102;6.848;2023-07-22T03:54:44;10.80;;;8.10;;
20456;SDS011;10387;51.102;6.848;2023-07-22T03:57:10;9.37;;;7.40;;
20456;SDS011;10387;51.102;6.848;2023-07-22T03:59:36;8.77;;;7.37;;
20456;SDS011;10387;51.102;6.848;2023-07-22T04:02:02;10.33;;;7.97;;
20456;SDS011;10387;51.102;6.848;2023-07-22T04:04:30;8.33;;;7.00;;
20456;SDS011;10387;51.102;6.848;2023-07-22T04:06:57;11.43;;;7.83;;
20456;SDS011;10387;51.102;6.848;2023-07-22T04:09:23;9.57;;;7.83;;
20456;SDS011;10387;51.102;6.848;2023-07-22T04:11:49;8.97;;;7.43;;
20456;SDS011;10387;51.102;6.848;2023-07-22T04:16:45;11.00;;;7.50;;
20456;SDS011;10387;51.102;6.848;2023-07-22T04:19:15;10.70;;;7.40;;
20456;SDS011;10387;51.102;6.848;2023-07-22T04:21:43;9.93;;;7.40;;
20456;SDS011;10387;51.102;6.848;2023-07-22T04:24:09;10.20;;;7.67;;
20456;SDS011;10387;51.102;6.848;2023-07-22T04:26:38;9.10;;;7.27;;
20456;SDS011;10387;51.102;6.848;2023-07-22T04:29:07;9.23;;;7.30;;
20456;SDS011;10387;51.102;6.848;2023-07-22T04:31:37;8.90;;;7.37;;
20456;SDS011;10387;51.102;6.848;2023-07-22T04:34:04;10.40;;;8.00;;
20456;SDS011;10387;51.102;6.848;2023-07-22T04:36:33;9.33;;;7.77;;
20456;SDS011;10387;51.102;6.848;2023-07-22T04:38:59;11.07;;;8.03;;
20456;SDS011;10387;51.102;6.848;2023-07-22T04:41:31;10.40;;;7.97;;
20456;SDS011;10387;51.102;6.848;2023-07-22T04:43:57;11.13;;;7.93;;
20456;SDS011;10387;51.102;6.848;2023-07-22T04:46:24;11.47;;;8.30;;
20456;SDS011;10387;51.102;6.848;2023-07-22T04:48:50;10.03;;;7.40;;
20456;SDS011;10387;51.102;6.848;2023-07-22T04:51:18;10.13;;;8.50;;
20456;SDS011;10387;51.102;6.848;2023-07-22T04:53:44;10.33;;;7.83;;
20456;SDS011;10387;51.102;6.848;2023-07-22T04:56:10;9.73;;;7.60;;
20456;SDS011;10387;51.102;6.848;2023-07-22T04:58:36;9.67;;;7.40;;
20456;SDS011;10387;51.102;6.848;2023-07-22T05:01:02;10.00;;;7.60;;
20456;SDS011;10387;51.102;6.848;2023-07-22T05:03:28;11.87;;;7.83;;
20456;SDS011;10387;51.102;6.848;2023-07-22T05:05:55;9.93;;;7.53;;
20456;SDS011;10387;51.102;6.848;2023-07-22T05:08:24;10.43;;;7.83;;
20456;SDS011;10387;51.102;6.848;2023-07-22T05:10:50;9.20;;;8.03;;
20456;SDS011;10387;51.102;6.848;2023-07-22T05:13:16;11.70;;;8.30;;
20456;SDS011;10387;51.102;6.848;2023-07-22T05:15:42;9.80;;;7.67;;
20456;SDS011;10387;51.102;6.848;2023-07-22T05:18:10;9.57;;;7.23;;
20456;SDS011;10387;51.102;6.848;2023-07-22T05:20:37;9.93;;;7.93;;
20456;SDS011;10387;51.102;6.848;2023-07-22T05:23:04;9.13;;;7.37;;
20456;SDS011;10387;51.102;6.848;2023-07-22T05:25:30;10.03;;;7.67;;
20456;SDS011;10387;51.102;6.848;2023-07-22T05:27:56;9.53;;;7.17;;
20456;SDS011;10387;51.102;6.848;2023-07-22T05:30:22;10.00;;;7.47;;
20456;SDS011;10387;51.102;6.848;2023-07-22T05:32:51;8.37;;;7.47;;
20456;SDS011;10387;51.102;6.848;2023-07-22T05:35:19;9.23;;;7.87;;
20456;SDS011;10387;51.102;6.848;2023-07-22T05:37:45;9.43;;;7.73;;
20456;SDS011;10387;51.102;6.848;2023-07-22T05:40:11;9.13;;;8.03;;
20456;SDS011;10387;51.102;6.848;2023-07-22T05:42:37;11.67;;;8.03;;
20456;SDS011;10387;51.102;6.848;2023-07-22T05:45:03;9.70;;;7.60;;
20456;SDS011;10387;51.102;6.848;2023-07-22T05:47:29;11.87;;;8.27;;
20456;SDS011;10387;51.102;6.848;2023-07-22T05:49:55;9.70;;;8.13;;
20456;SDS011;10387;51.102;6.848;2023-07-22T05:52:21;9.93;;;8.20;;
20456;SDS011;10387;51.102;6.848;2023-07-22T05:54:49;10.63;;;7.67;;
20456;SDS011;10387;51.102;6.848;2023-07-22T05:57:15;12.03;;;7.93;;
20456;SDS011;10387;51.102;6.848;2023-07-22T05:59:41;10.57;;;8.30;;
20456;SDS011;10387;51.102;6.848;2023-07-22T06:02:08;10.50;;;8.33;;
20456;SDS011;10387;51.102;6.848;2023-07-22T06:04:35;11.37;;;8.53;;
20456;SDS011;10387;51.102;6.848;2023-07-22T06:07:01;10.87;;;8.43;;
20456;SDS011;10387;51.102;6.848;2023-07-22T06:09:27;9.37;;;8.27;;
20456;SDS011;10387;51.102;6.848;2023-07-22T06:11:53;8.87;;;7.93;;
20456;SDS011;10387;51.102;6.848;2023-07-22T06:14:21;10.90;;;7.83;;
20456;SDS011;10387;51.102;6.848;2023-07-22T06:16:48;9.43;;;7.53;;
20456;SDS011;10387;51.102;6.848;2023-07-22T06:19:14;9.63;;;7.23;;
20456;SDS011;10387;51.102;6.848;2023-07-22T06:21:40;9.57;;;7.43;;
20456;SDS011;10387;51.102;6.848;2023-07-22T06:24:06;9.70;;;7.30;;
20456;SDS011;10387;51.102;6.848;2023-07-22T06:26:32;7.83;;;6.80;;
20456;SDS011;10387;51.102;6.848;2023-07-22T06:28:58;9.33;;;7.10;;
20456;SDS011;10387;51.102;6.848;2023-07-22T06:31:25;9.10;;;6.47;;
20456;SDS011;10387;51.102;6.848;2023-07-22T06:33:58;8.23;;;6.20;;
20456;SDS011;10387;51.102;6.848;2023-07-22T06:36:25;9.87;;;7.07;;
20456;SDS011;10387;51.102;6.848;2023-07-22T06:38:51;7.87;;;6.40;;
20456;SDS011;10387;51.102;6.848;2023-07-22T06:41:17;9.70;;;6.23;;
20456;SDS011;10387;51.102;6.848;2023-07-22T06:43:44;6.37;;;5.40;;
20456;SDS011;10387;51.102;6.848;2023-07-22T06:46:10;7.30;;;5.90;;
20456;SDS011;10387;51.102;6.848;2023-07-22T06:48:36;8.07;;;6.27;;
20456;SDS011;10387;51.102;6.848;2023-07-22T06:51:03;10.13;;;7.13;;
20456;SDS011;10387;51.102;6.848;2023-07-22T06:53:29;8.60;;;6.00;;
20456;SDS011;10387;51.102;6.848;2023-07-22T06:55:56;8.80;;;6.70;;
20456;SDS011;10387;51.102;6.848;2023-07-22T06:58:22;8.07;;;6.43;;
20456;SDS011;10387;51.102;6.848;2023-07-22T07:00:52;8.47;;;6.43;;
20456;SDS011;10387;51.102;6.848;2023-07-22T07:03:19;10.27;;;6.47;;
20456;SDS011;10387;51.102;6.848;2023-07-22T07:05:55;8.83;;;6.37;;
20456;SDS011;10387;51.102;6.848;2023-07-22T07:08:22;8.67;;;6.97;;
20456;SDS011;10387;51.102;6.848;2023-07-22T07:10:48;8.57;;;5.97;;
20456;SDS011;10387;51.102;6.848;2023-07-22T07:13:17;7.80;;;6.23;;
20456;SDS011;10387;51.102;6.848;2023-07-22T07:15:47;8.87;;;6.83;;
20456;SDS011;10387;51.102;6.848;2023-07-22T07:18:14;6.63;;;5.93;;
20456;SDS011;10387;51.102;6.848;2023-07-22T07:20:40;7.90;;;6.80;;
20456;SDS011;10387;51.102;6.848;2023-07-22T07:23:06;8.97;;;5.93;;
20456;SDS011;10387;51.102;6.848;2023-07-22T07:25:33;10.27;;;7.07;;
20456;SDS011;10387;51.102;6.848;2023-07-22T07:28:00;9.50;;;6.77;;
20456;SDS011;10387;51.102;6.848;2023-07-22T07:30:26;8.13;;;6.67;;
20456;SDS011;10387;51.102;6.848;2023-07-22T07:32:52;8.00;;;6.80;;
20456;SDS011;10387;51.102;6.848;2023-07-22T07:35:18;8.27;;;6.43;;
20456;SDS011;10387;51.102;6.848;2023-07-22T07:37:44;9.97;;;6.40;;
20456;SDS011;10387;51.102;6.848;2023-07-22T07:40:10;8.10;;;6.33;;
20456;SDS011;10387;51.102;6.848;2023-07-22T07:42:37;8.73;;;6.97;;
20456;SDS011;10387;51.102;6.848;2023-07-22T07:45:03;8.93;;;7.00;;
20456;SDS011;10387;51.102;6.848;2023-07-22T07:47:29;8.10;;;6.93;;
20456;SDS011;10387;51.102;6.848;2023-07-22T07:49:55;8.80;;;6.90;;
20456;SDS011;10387;51.102;6.848;2023-07-22T07:52:22;9.03;;;6.93;;
20456;SDS011;10387;51.102;6.848;2023-07-22T07:54:48;9.17;;;7.30;;
20456;SDS011;10387;51.102;6.848;2023-07-22T07:57:14;9.97;;;7.20;;
20456;SDS011;10387;51.102;6.848;2023-07-22T07:59:41;7.87;;;7.00;;
20456;SDS011;10387;51.102;6.848;2023-07-22T08:02:07;9.00;;;7.47;;
20456;SDS011;10387;51.102;6.848;2023-07-22T08:04:34;9.97;;;6.90;;
20456;SDS011;10387;51.102;6.848;2023-07-22T08:07:01;8.23;;;6.80;;
20456;SDS011;10387;51.102;6.848;2023-07-22T08:09:27;8.53;;;6.80;;
20456;SDS011;10387;51.102;6.848;2023-07-22T08:11:54;9.50;;;7.60;;
20456;SDS011;10387;51.102;6.848;2023-07-22T08:14:20;10.53;;;7.73;;
20456;SDS011;10387;51.102;6.848;2023-07-22T08:16:50;10.53;;;8.43;;
20456;SDS011;10387;51.102;6.848;2023-07-22T08:19:16;8.27;;;7.30;;
20456;SDS011;10387;51.102;6.848;2023-07-22T08:21:42;10.47;;;7.50;;
20456;SDS011;10387;51.102;6.848;2023-07-22T08:24:08;11.57;;;7.67;;
20456;SDS011;10387;51.102;6.848;2023-07-22T08:26:34;9.73;;;7.20;;
20456;SDS011;10387;51.102;6.848;2023-07-22T08:29:02;10.50;;;7.20;;
20456;SDS011;10387;51.102;6.848;2023-07-22T08:31:28;8.87;;;7.03;;
20456;SDS011;10387;51.102;6.848;2023-07-22T08:33:55;11.50;;;7.93;;
20456;SDS011;10387;51.102;6.848;2023-07-22T08:36:21;10.73;;;7.53;;
20456;SDS011;10387;51.102;6.848;2023-07-22T08:38:48;9.27;;;7.23;;
20456;SDS011;10387;51.102;6.848;2023-07-22T08:41:14;9.80;;;7.50;;
20456;SDS011;10387;51.102;6.848;2023-07-22T08:43:44;9.93;;;7.53;;
20456;SDS011;10387;51.102;6.848;2023-07-22T08:46:14;7.73;;;6.93;;
20456;SDS011;10387;51.102;6.848;2023-07-22T08:48:41;8.37;;;6.47;;
20456;SDS011;10387;51.102;6.848;2023-07-22T08:51:12;9.20;;;6.70;;
20456;SDS011;10387;51.102;6.848;2023-07-22T08:53:41;8.03;;;6.80;;
20456;SDS011;10387;51.102;6.848;2023-07-22T08:56:09;9.00;;;6.83;;
20456;SDS011;10387;51.102;6.848;2023-07-22T08:58:35;10.20;;;6.77;;
20456;SDS011;10387;51.102;6.848;2023-07-22T09:01:02;11.27;;;6.83;;
20456;SDS011;10387;51.102;6.848;2023-07-22T09:03:28;10.00;;;6.63;;
20456;SDS011;10387;51.102;6.848;2023-07-22T09:05:54;7.53;;;5.90;;
20456;SDS011;10387;51.102;6.848;2023-07-22T09:08:21;8.77;;;6.80;;
20456;SDS011;10387;51.102;6.848;2023-07-22T09:10:47;8.90;;;7.03;;
20456;SDS011;10387;51.102;6.848;2023-07-22T09:13:13;8.73;;;6.50;;
20456;SDS011;10387;51.102;6.848;2023-07-22T09:15:40;9.10;;;6.60;;
20456;SDS011;10387;51.102;6.848;2023-07-22T09:18:06;7.73;;;5.63;;
20456;SDS011;10387;51.102;6.848;2023-07-22T09:20:32;6.60;;;4.90;;
20456;SDS011;10387;51.102;6.848;2023-07-22T09:23:00;7.23;;;5.30;;
20456;SDS011;10387;51.102;6.848;2023-07-22T09:25:27;6.20;;;5.27;;
20456;SDS011;10387;51.102;6.848;2023-07-22T09:27:54;5.43;;;4.83;;
20456;SDS011;10387;51.102;6.848;2023-07-22T09:30:24;5.50;;;4.47;;
20456;SDS011;10387;51.102;6.848;2023-07-22T09:32:51;5.60;;;4.90;;
20456;SDS011;10387;51.102;6.848;2023-07-22T09:35:18;5.77;;;4.43;;
20456;SDS011;10387;51.102;6.848;2023-07-22T09:37:44;5.87;;;4.60;;
20456;SDS011;10387;51.102;6.848;2023-07-22T09:40:14;4.87;;;3.90;;
20456;SDS011;10387;51.102;6.848;2023-07-22T09:42:51;5.33;;;4.50;;
20456;SDS011;10387;51.102;6.848;2023-07-22T09:45:18;6.17;;;4.50;;
20456;SDS011;10387;51.102;6.848;2023-07-22T09:47:46;5.47;;;4.90;;
20456;SDS011;10387;51.102;6.848;2023-07-22T09:50:19;5.57;;;4.53;;
20456;SDS011;10387;51.102;6.848;2023-07-22T09:52:56;5.80;;;4.83;;
20456;SDS011;10387;51.102;6.848;2023-07-22T09:55:24;4.70;;;4.27;;
20456;SDS011;10387;51.102;6.848;2023-07-22T09:57:52;4.13;;;3.67;;
20456;SDS011;10387;51.102;6.848;2023-07-22T10:00:19;5.20;;;4.70;;
20456;SDS011;10387;51.102;6.848;2023-07-22T10:02:50;4.63;;;4.23;;
20456;SDS011;10387;51.102;6.848;2023-07-22T10:05:18;5.60;;;4.57;;
20456;SDS011;10387;51.102;6.848;2023-07-22T10:07:48;4.40;;;4.00;;
20456;SDS011;10387;51.102;6.848;2023-07-22T10:10:16;5.87;;;4.00;;
20456;SDS011;10387;51.102;6.848;2023-07-22T10:12:42;5.13;;;4.07;;
20456;SDS011;10387;51.102;6.848;2023-07-22T10:15:09;4.57;;;3.77;;
20456;SDS011;10387;51.102;6.848;2023-07-22T10:17:37;5.10;;;3.87;;
20456;SDS011;10387;51.102;6.848;2023-07-22T10:20:07;4.23;;;3.83;;
20456;SDS011;10387;51.102;6.848;2023-07-22T10:22:35;4.43;;;3.80;;
20456;SDS011;10387;51.102;6.848;2023-07-22T10:25:05;5.00;;;3.80;;
20456;SDS011;10387;51.102;6.848;2023-07-22T10:27:36;4.33;;;3.10;;
20456;SDS011;10387;51.102;6.848;2023-07-22T10:30:05;4.43;;;3.60;;
20456;SDS011;10387;51.102;6.848;2023-07-22T10:32:32;4.10;;;3.20;;
20456;SDS011;10387;51.102;6.848;2023-07-22T10:34:59;4.90;;;3.63;;
20456;SDS011;10387;51.102;6.848;2023-07-22T10:37:32;6.03;;;3.37;;
20456;SDS011;10387;51.102;6.848;2023-07-22T10:39:59;5.27;;;3.80;;
20456;SDS011;10387;51.102;6.848;2023-07-22T10:42:26;4.80;;;3.60;;
20456;SDS011;10387;51.102;6.848;2023-07-22T10:44:53;5.63;;;3.10;;
20456;SDS011;10387;51.102;6.848;2023-07-22T10:47:32;3.87;;;3.20;;
20456;SDS011;10387;51.102;6.848;2023-07-22T10:50:04;4.97;;;3.60;;
20456;SDS011;10387;51.102;6.848;2023-07-22T10:52:39;5.53;;;3.43;;
20456;SDS011;10387;51.102;6.848;2023-07-22T10:55:19;8.07;;;4.40;;
20456;SDS011;10387;51.102;6.848;2023-07-22T10:57:50;4.00;;;3.50;;
20456;SDS011;10387;51.102;6.848;2023-07-22T11:00:18;4.47;;;3.73;;
20456;SDS011;10387;51.102;6.848;2023-07-22T11:03:08;5.33;;;3.70;;
20456;SDS011;10387;51.102;6.848;2023-07-22T11:05:55;3.97;;;3.30;;
20456;SDS011;10387;51.102;6.848;2023-07-22T11:08:40;5.40;;;3.60;;
20456;SDS011;10387;51.102;6.848;2023-07-22T11:11:06;4.17;;;3.00;;
20456;SDS011;10387;51.102;6.848;2023-07-22T11:13:39;4.13;;;3.30;;
20456;SDS011;10387;51.102;6.848;2023-07-22T11:16:10;3.30;;;3.00;;
20456;SDS011;10387;51.102;6.848;2023-07-22T11:18:40;4.07;;;2.83;;
20456;SDS011;10387;51.102;6.848;2023-07-22T11:21:10;3.50;;;3.13;;
20456;SDS011;10387;51.102;6.848;2023-07-22T11:23:37;3.30;;;2.87;;
20456;SDS011;10387;51.102;6.848;2023-07-22T11:26:03;3.13;;;2.83;;
20456;SDS011;10387;51.102;6.848;2023-07-22T11:28:30;5.77;;;3.07;;
20456;SDS011;10387;51.102;6.848;2023-07-22T11:30:57;3.73;;;3.30;;
20456;SDS011;10387;51.102;6.848;2023-07-22T11:33:25;3.63;;;2.73;;
20456;SDS011;10387;51.102;6.848;2023-07-22T11:35:51;4.30;;;3.13;;
20456;SDS011;10387;51.102;6.848;2023-07-22T11:38:17;7.23;;;3.00;;
20456;SDS011;10387;51.102;6.848;2023-07-22T11:40:43;3.70;;;3.37;;
20456;SDS011;10387;51.102;6.848;2023-07-22T11:43:11;3.77;;;2.77;;
20456;SDS011;10387;51.102;6.848;2023-07-22T11:45:38;3.17;;;2.80;;
20456;SDS011;10387;51.102;6.848;2023-07-22T11:48:08;3.53;;;3.00;;
20456;SDS011;10387;51.102;6.848;2023-07-22T11:50:35;4.63;;;3.23;;
20456;SDS011;10387;51.102;6.848;2023-07-22T11:53:01;3.70;;;3.30;;
20456;SDS011;10387;51.102;6.848;2023-07-22T11:55:27;3.43;;;3.13;;
20456;SDS011;10387;51.102;6.848;2023-07-22T11:57:53;3.20;;;2.90;;
20456;SDS011;10387;51.102;6.848;2023-07-22T12:00:21;3.23;;;2.93;;
20456;SDS011;10387;51.102;6.848;2023-07-22T12:02:48;2.97;;;2.67;;
20456;SDS011;10387;51.102;6.848;2023-07-22T12:05:21;3.20;;;2.90;;
20456;SDS011;10387;51.102;6.848;2023-07-22T12:07:47;3.97;;;2.87;;
20456;SDS011;10387;51.102;6.848;2023-07-22T12:10:15;3.17;;;2.87;;
20456;SDS011;10387;51.102;6.848;2023-07-22T12:12:45;3.10;;;2.57;;
20456;SDS011;10387;51.102;6.848;2023-07-22T12:15:12;4.70;;;2.70;;
20456;SDS011;10387;51.102;6.848;2023-07-22T12:17:46;3.07;;;2.77;;
20456;SDS011;10387;51.102;6.848;2023-07-22T12:20:12;4.67;;;2.73;;
20456;SDS011;10387;51.102;6.848;2023-07-22T12:22:39;3.87;;;2.70;;
20456;SDS011;10387;51.102;6.848;2023-07-22T12:25:05;2.93;;;2.73;;
20456;SDS011;10387;51.102;6.848;2023-07-22T12:27:31;3.10;;;2.80;;
20456;SDS011;10387;51.102;6.848;2023-07-22T12:29:58;2.97;;;2.67;;
20456;SDS011;10387;51.102;6.848;2023-07-22T12:32:24;3.13;;;2.33;;
20456;SDS011;10387;51.102;6.848;2023-07-22T12:34:50;3.40;;;2.57;;
20456;SDS011;10387;51.102;6.848;2023-07-22T12:37:16;3.00;;;2.70;;
20456;SDS011;10387;51.102;6.848;2023-07-22T12:39:42;4.20;;;2.87;;
20456;SDS011;10387;51.102;6.848;2023-07-22T12:42:09;2.80;;;2.40;;
20456;SDS011;10387;51.102;6.848;2023-07-22T12:44:35;4.23;;;3.27;;
20456;SDS011;10387;51.102;6.848;2023-07-22T12:47:01;3.88;;;2.85;;
20456;SDS011;10387;51.102;6.848;2023-07-22T12:49:27;4.10;;;3.27;;
20456;SDS011;10387;51.102;6.848;2023-07-22T12:51:53;3.73;;;3.13;;
20456;SDS011;10387;51.102;6.848;2023-07-22T12:54:19;3.67;;;3.10;;
20456;SDS011;10387;51.102;6.848;2023-07-22T12:56:45;3.40;;;3.05;;
20456;SDS011;10387;51.102;6.848;2023-07-22T12:59:12;2.93;;;2.73;;
20456;SDS011;10387;51.102;6.848;2023-07-22T13:01:38;3.90;;;2.83;;
20456;SDS011;10387;51.102;6.848;2023-07-22T13:04:06;3.00;;;2.70;;
20456;SDS011;10387;51.102;6.848;2023-07-22T13:06:32;2.50;;;2.30;;
20456;SDS011;10387;51.102;6.848;2023-07-22T13:08:58;4.03;;;2.70;;
20456;SDS011;10387;51.102;6.848;2023-07-22T13:11:24;6.30;;;2.83;;
20456;SDS011;10387;51.102;6.848;2023-07-22T13:13:50;3.50;;;2.73;;
20456;SDS011;10387;51.102;6.848;2023-07-22T13:16:17;3.67;;;2.47;;
20456;SDS011;10387;51.102;6.848;2023-07-22T13:18:43;2.70;;;2.47;;
20456;SDS011;10387;51.102;6.848;2023-07-22T13:21:09;2.90;;;2.60;;
20456;SDS011;10387;51.102;6.848;2023-07-22T13:23:35;2.67;;;2.42;;
20456;SDS011;10387;51.102;6.848;2023-07-22T13:26:01;3.72;;;2.60;;
20456;SDS011;10387;51.102;6.848;2023-07-22T13:28:27;3.00;;;2.70;;
20456;SDS011;10387;51.102;6.848;2023-07-22T13:30:53;2.67;;;2.47;;
20456;SDS011;10387;51.102;6.848;2023-07-22T13:33:19;3.70;;;2.83;;
20456;SDS011;10387;51.102;6.848;2023-07-22T13:35:45;3.47;;;2.97;;
20456;SDS011;10387;51.102;6.848;2023-07-22T13:38:12;3.08;;;2.47;;
20456;SDS011;10387;51.102;6.848;2023-07-22T13:40:39;3.13;;;2.83;;
20456;SDS011;10387;51.102;6.848;2023-07-22T13:43:06;3.05;;;2.70;;
20456;SDS011;10387;51.102;6.848;2023-07-22T13:45:33;4.22;;;3.00;;
20456;SDS011;10387;51.102;6.848;2023-07-22T13:47:59;3.22;;;2.90;;
20456;SDS011;10387;51.102;6.848;2023-07-22T13:50:25;3.30;;;3.00;;
20456;SDS011;10387;51.102;6.848;2023-07-22T13:52:52;3.28;;;2.97;;
20456;SDS011;10387;51.102;6.848;2023-07-22T13:55:18;3.95;;;2.90;;
20456;SDS011;10387;51.102;6.848;2023-07-22T13:57:45;3.40;;;3.10;;
20456;SDS011;10387;51.102;6.848;2023-07-22T14:00:11;3.60;;;3.30;;
20456;SDS011;10387;51.102;6.848;2023-07-22T14:02:42;3.30;;;2.90;;
20456;SDS011;10387;51.102;6.848;2023-07-22T14:05:09;4.07;;;3.45;;
20456;SDS011;10387;51.102;6.848;2023-07-22T14:07:36;3.38;;;2.80;;
20456;SDS011;10387;51.102;6.848;2023-07-22T14:10:03;3.35;;;3.05;;
20456;SDS011;10387;51.102;6.848;2023-07-22T14:12:30;3.47;;;3.10;;
20456;SDS011;10387;51.102;6.848;2023-07-22T14:14:56;3.70;;;3.28;;
20456;SDS011;10387;51.102;6.848;2023-07-22T14:17:28;3.90;;;3.50;;
20456;SDS011;10387;51.102;6.848;2023-07-22T14:19:54;3.85;;;3.33;;
20456;SDS011;10387;51.102;6.848;2023-07-22T14:22:20;3.88;;;3.15;;
20456;SDS011;10387;51.102;6.848;2023-07-22T14:24:52;5.20;;;3.88;;
20456;SDS011;10387;51.102;6.848;2023-07-22T14:27:18;4.07;;;3.67;;
20456;SDS011;10387;51.102;6.848;2023-07-22T14:29:45;3.95;;;3.55;;
20456;SDS011;10387;51.102;6.848;2023-07-22T14:32:11;3.83;;;3.53;;
20456;SDS011;10387;51.102;6.848;2023-07-22T14:34:37;4.20;;;3.80;;
20456;SDS011;10387;51.102;6.848;2023-07-22T14:37:03;4.38;;;3.90;;
20456;SDS011;10387;51.102;6.848;2023-07-22T14:39:30;5.93;;;3.83;;
20456;SDS011;10387;51.102;6.848;2023-07-22T14:41:57;4.10;;;3.70;;
20456;SDS011;10387;51.102;6.848;2023-07-22T14:44:23;4.25;;;3.63;;
20456;SDS011;10387;51.102;6.848;2023-07-22T14:46:50;4.45;;;3.70;;
20456;SDS011;10387;51.102;6.848;2023-07-22T14:49:19;4.80;;;3.80;;